Terminal Aerodrome Forecast
Issued by NWS Cleveland, OH

Home | Current Version | Previous Version | Graphics & Text | Print | Product List | Glossary On
Versions: 1 2 3 4 5 6 7 8 9 10 11 12 13 14 15 16 17 18 19 20 21 22 23 24 25 26 27 28
651
FTUS41 KCLE 210901 AAB
TAFCLE
TAF AMD
KCLE 210901Z 2109/2212 16012KT P6SM SCT050 BKN120
     FM211400 18014G20KT 6SM -RA VCTS SCT025 OVC060CB
     FM211700 18015G22KT P6SM VCSH BKN035
     FM212300 22014KT P6SM -SHRA VCTS SCT025 BKN050CB
     FM220200 24010KT P6SM BKN040=

USA.gov is the U.S. government's official web portal to all federal, state and local government web resources and services.